sensor_id;sensor_type;location;lat;lon;timestamp;temperature;humidity
1468;DHT22;727;48.892;9.544;2023-10-31T00:01:35;12.10;99.90
1468;DHT22;727;48.892;9.544;2023-10-31T00:04:02;12.10;99.90
1468;DHT22;727;48.892;9.544;2023-10-31T00:06:29;12.10;99.90
1468;DHT22;727;48.892;9.544;2023-10-31T00:08:56;12.10;99.90
1468;DHT22;727;48.892;9.544;2023-10-31T00:11:25;12.10;99.90
1468;DHT22;727;48.892;9.544;2023-10-31T00:13:51;12.10;99.90
1468;DHT22;727;48.892;9.544;2023-10-31T00:16:18;12.00;99.90
1468;DHT22;727;48.892;9.544;2023-10-31T00:18:45;12.00;99.90
1468;DHT22;727;48.892;9.544;2023-10-31T00:21:12;12.00;99.90
1468;DHT22;727;48.892;9.544;2023-10-31T00:23:45;12.00;99.90
1468;DHT22;727;48.892;9.544;2023-10-31T00:26:12;12.00;99.90
1468;DHT22;727;48.892;9.544;2023-10-31T00:28:41;12.00;99.90
1468;DHT22;727;48.892;9.544;2023-10-31T00:31:07;12.00;99.90
1468;DHT22;727;48.892;9.544;2023-10-31T00:33:37;12.00;99.90
1468;DHT22;727;48.892;9.544;2023-10-31T00:36:04;12.00;99.90
1468;DHT22;727;48.892;9.544;2023-10-31T00:38:31;12.00;99.90
1468;DHT22;727;48.892;9.544;2023-10-31T00:40:58;12.00;99.90
1468;DHT22;727;48.892;9.544;2023-10-31T00:43:25;12.00;99.90
1468;DHT22;727;48.892;9.544;2023-10-31T00:45:53;12.00;99.90
1468;DHT22;727;48.892;9.544;2023-10-31T00:48:20;11.90;99.90
1468;DHT22;727;48.892;9.544;2023-10-31T00:50:46;11.90;99.90
1468;DHT22;727;48.892;9.544;2023-10-31T00:53:13;11.90;99.90
1468;DHT22;727;48.892;9.544;2023-10-31T00:55:42;11.90;99.90
1468;DHT22;727;48.892;9.544;2023-10-31T00:58:09;11.90;99.90
1468;DHT22;727;48.892;9.544;2023-10-31T01:00:36;11.90;99.90
1468;DHT22;727;48.892;9.544;2023-10-31T01:03:05;11.90;99.90
1468;DHT22;727;48.892;9.544;2023-10-31T01:05:31;11.90;99.90
1468;DHT22;727;48.892;9.544;2023-10-31T01:07:58;11.90;99.90
1468;DHT22;727;48.892;9.544;2023-10-31T01:10:25;11.90;99.90
1468;DHT22;727;48.892;9.544;2023-10-31T01:12:51;11.90;99.90
1468;DHT22;727;48.892;9.544;2023-10-31T01:15:18;11.80;99.90
1468;DHT22;727;48.892;9.544;2023-10-31T01:17:45;11.80;99.90
1468;DHT22;727;48.892;9.544;2023-10-31T01:20:14;11.80;99.90
1468;DHT22;727;48.892;9.544;2023-10-31T01:22:41;11.70;99.90
1468;DHT22;727;48.892;9.544;2023-10-31T01:25:08;11.70;99.90
1468;DHT22;727;48.892;9.544;2023-10-31T01:27:36;11.60;99.90
1468;DHT22;727;48.892;9.544;2023-10-31T01:30:03;11.60;99.90
1468;DHT22;727;48.892;9.544;2023-10-31T01:32:30;11.60;99.90
1468;DHT22;727;48.892;9.544;2023-10-31T01:34:57;11.50;99.90
1468;DHT22;727;48.892;9.544;2023-10-31T01:37:25;11.50;99.90
1468;DHT22;727;48.892;9.544;2023-10-31T01:39:52;11.50;99.90
1468;DHT22;727;48.892;9.544;2023-10-31T01:42:18;11.40;99.90
1468;DHT22;727;48.892;9.544;2023-10-31T01:44:45;11.40;99.90
1468;DHT22;727;48.892;9.544;2023-10-31T01:47:12;11.30;99.90
1468;DHT22;727;48.892;9.544;2023-10-31T01:49:39;11.30;99.90
1468;DHT22;727;48.892;9.544;2023-10-31T01:52:06;11.30;99.90
1468;DHT22;727;48.892;9.544;2023-10-31T01:54:35;11.30;99.90
1468;DHT22;727;48.892;9.544;2023-10-31T01:57:02;11.20;99.90
1468;DHT22;727;48.892;9.544;2023-10-31T01:59:31;11.20;99.90
1468;DHT22;727;48.892;9.544;2023-10-31T02:01:59;11.10;99.90
1468;DHT22;727;48.892;9.544;2023-10-31T02:04:27;11.00;99.90
1468;DHT22;727;48.892;9.544;2023-10-31T02:06:54;11.00;99.90
1468;DHT22;727;48.892;9.544;2023-10-31T02:09:20;11.00;99.90
1468;DHT22;727;48.892;9.544;2023-10-31T02:11:51;10.90;99.90
1468;DHT22;727;48.892;9.544;2023-10-31T02:14:18;10.80;99.90
1468;DHT22;727;48.892;9.544;2023-10-31T02:16:45;10.80;99.90
1468;DHT22;727;48.892;9.544;2023-10-31T02:19:13;10.80;99.90
1468;DHT22;727;48.892;9.544;2023-10-31T02:21:42;10.70;99.90
1468;DHT22;727;48.892;9.544;2023-10-31T02:24:10;10.80;99.90
1468;DHT22;727;48.892;9.544;2023-10-31T02:26:36;10.80;99.90
1468;DHT22;727;48.892;9.544;2023-10-31T02:29:04;10.70;99.90
1468;DHT22;727;48.892;9.544;2023-10-31T02:31:32;10.70;99.90
1468;DHT22;727;48.892;9.544;2023-10-31T02:33:59;10.70;99.90
1468;DHT22;727;48.892;9.544;2023-10-31T02:36:26;10.70;99.90
1468;DHT22;727;48.892;9.544;2023-10-31T02:38:54;10.70;99.90
1468;DHT22;727;48.892;9.544;2023-10-31T02:41:21;10.70;99.90
1468;DHT22;727;48.892;9.544;2023-10-31T02:43:48;10.70;99.90
1468;DHT22;727;48.892;9.544;2023-10-31T02:46:15;10.60;99.90
1468;DHT22;727;48.892;9.544;2023-10-31T02:48:43;10.60;99.90
1468;DHT22;727;48.892;9.544;2023-10-31T02:51:10;10.50;99.90
1468;DHT22;727;48.892;9.544;2023-10-31T02:53:37;10.50;99.90
1468;DHT22;727;48.892;9.544;2023-10-31T02:56:06;10.40;99.90
1468;DHT22;727;48.892;9.544;2023-10-31T02:58:33;10.40;99.90
1468;DHT22;727;48.892;9.544;2023-10-31T03:01:00;10.30;99.90
1468;DHT22;727;48.892;9.544;2023-10-31T03:03:27;10.20;99.90
1468;DHT22;727;48.892;9.544;2023-10-31T03:05:55;10.20;99.90
1468;DHT22;727;48.892;9.544;2023-10-31T03:08:22;10.10;99.90
1468;DHT22;727;48.892;9.544;2023-10-31T03:10:49;10.00;99.90
1468;DHT22;727;48.892;9.544;2023-10-31T03:13:19;10.00;99.90
1468;DHT22;727;48.892;9.544;2023-10-31T03:15:46;9.90;99.90
1468;DHT22;727;48.892;9.544;2023-10-31T03:18:13;9.90;99.90
1468;DHT22;727;48.892;9.544;2023-10-31T03:20:43;9.80;99.90
1468;DHT22;727;48.892;9.544;2023-10-31T03:23:10;9.90;99.90
1468;DHT22;727;48.892;9.544;2023-10-31T03:25:37;9.90;99.90
1468;DHT22;727;48.892;9.544;2023-10-31T03:28:07;9.80;99.90
1468;DHT22;727;48.892;9.544;2023-10-31T03:30:35;9.80;99.90
1468;DHT22;727;48.892;9.544;2023-10-31T03:33:02;9.80;99.90
1468;DHT22;727;48.892;9.544;2023-10-31T03:35:29;9.80;99.90
1468;DHT22;727;48.892;9.544;2023-10-31T03:37:56;9.70;99.90
1468;DHT22;727;48.892;9.544;2023-10-31T03:40:23;9.70;99.90
1468;DHT22;727;48.892;9.544;2023-10-31T03:42:53;9.70;99.90
1468;DHT22;727;48.892;9.544;2023-10-31T03:45:22;9.60;99.90
1468;DHT22;727;48.892;9.544;2023-10-31T03:47:50;9.60;99.90
1468;DHT22;727;48.892;9.544;2023-10-31T03:50:17;9.60;99.90
1468;DHT22;727;48.892;9.544;2023-10-31T03:52:45;9.50;99.90
1468;DHT22;727;48.892;9.544;2023-10-31T03:55:12;9.50;99.90
1468;DHT22;727;48.892;9.544;2023-10-31T03:57:42;9.50;99.90
1468;DHT22;727;48.892;9.544;2023-10-31T04:00:09;9.50;99.90
1468;DHT22;727;48.892;9.544;2023-10-31T04:02:37;9.40;99.90
1468;DHT22;727;48.892;9.544;2023-10-31T04:05:08;9.40;99.90
1468;DHT22;727;48.892;9.544;2023-10-31T04:07:35;9.40;99.90
1468;DHT22;727;48.892;9.544;2023-10-31T04:10:04;9.40;99.90
1468;DHT22;727;48.892;9.544;2023-10-31T04:12:31;9.50;99.90
1468;DHT22;727;48.892;9.544;2023-10-31T04:14:58;9.50;99.90
1468;DHT22;727;48.892;9.544;2023-10-31T04:17:24;9.60;99.90
1468;DHT22;727;48.892;9.544;2023-10-31T04:19:51;9.60;99.90
1468;DHT22;727;48.892;9.544;2023-10-31T04:22:19;9.60;99.90
1468;DHT22;727;48.892;9.544;2023-10-31T04:24:47;9.70;99.90
1468;DHT22;727;48.892;9.544;2023-10-31T04:27:13;9.60;99.90
1468;DHT22;727;48.892;9.544;2023-10-31T04:29:40;9.60;99.90
1468;DHT22;727;48.892;9.544;2023-10-31T04:32:07;9.60;99.90
1468;DHT22;727;48.892;9.544;2023-10-31T04:34:34;9.60;99.90
1468;DHT22;727;48.892;9.544;2023-10-31T04:37:01;9.50;99.90
1468;DHT22;727;48.892;9.544;2023-10-31T04:39:29;9.50;99.90
1468;DHT22;727;48.892;9.544;2023-10-31T04:41:56;9.60;99.90
1468;DHT22;727;48.892;9.544;2023-10-31T04:44:23;9.60;99.90
1468;DHT22;727;48.892;9.544;2023-10-31T04:46:50;9.60;99.90
1468;DHT22;727;48.892;9.544;2023-10-31T04:49:17;9.60;99.90
1468;DHT22;727;48.892;9.544;2023-10-31T04:51:44;9.60;99.90
1468;DHT22;727;48.892;9.544;2023-10-31T04:54:13;9.60;99.90
1468;DHT22;727;48.892;9.544;2023-10-31T04:56:41;9.60;99.90
1468;DHT22;727;48.892;9.544;2023-10-31T04:59:08;9.60;99.90
1468;DHT22;727;48.892;9.544;2023-10-31T05:01:35;9.60;99.90
1468;DHT22;727;48.892;9.544;2023-10-31T05:04:02;9.60;99.90
1468;DHT22;727;48.892;9.544;2023-10-31T05:06:29;9.60;99.90
1468;DHT22;727;48.892;9.544;2023-10-31T05:08:56;9.60;99.90
1468;DHT22;727;48.892;9.544;2023-10-31T05:11:25;9.60;99.90
1468;DHT22;727;48.892;9.544;2023-10-31T05:13:55;9.60;99.90
1468;DHT22;727;48.892;9.544;2023-10-31T05:16:21;9.60;99.90
1468;DHT22;727;48.892;9.544;2023-10-31T05:18:49;9.60;99.90
1468;DHT22;727;48.892;9.544;2023-10-31T05:21:19;9.60;99.90
1468;DHT22;727;48.892;9.544;2023-10-31T05:23:49;9.60;99.90
1468;DHT22;727;48.892;9.544;2023-10-31T05:26:16;9.70;99.90
1468;DHT22;727;48.892;9.544;2023-10-31T05:28:44;9.70;99.90
1468;DHT22;727;48.892;9.544;2023-10-31T05:31:15;9.60;99.90
1468;DHT22;727;48.892;9.544;2023-10-31T05:33:42;9.60;99.90
1468;DHT22;727;48.892;9.544;2023-10-31T05:36:17;9.60;99.90
1468;DHT22;727;48.892;9.544;2023-10-31T05:38:44;9.50;99.90
1468;DHT22;727;48.892;9.544;2023-10-31T05:41:13;9.60;99.90
1468;DHT22;727;48.892;9.544;2023-10-31T05:43:40;9.60;99.90
1468;DHT22;727;48.892;9.544;2023-10-31T05:46:08;9.50;99.90
1468;DHT22;727;48.892;9.544;2023-10-31T05:48:38;9.50;99.90
1468;DHT22;727;48.892;9.544;2023-10-31T05:51:11;9.50;99.90
1468;DHT22;727;48.892;9.544;2023-10-31T05:53:41;9.40;99.90
1468;DHT22;727;48.892;9.544;2023-10-31T05:56:09;9.40;99.90
1468;DHT22;727;48.892;9.544;2023-10-31T05:58:36;9.30;99.90
1468;DHT22;727;48.892;9.544;2023-10-31T06:01:04;9.30;99.90
1468;DHT22;727;48.892;9.544;2023-10-31T06:03:32;9.20;99.90
1468;DHT22;727;48.892;9.544;2023-10-31T06:06:00;9.10;99.90
1468;DHT22;727;48.892;9.544;2023-10-31T06:08:27;9.10;99.90
1468;DHT22;727;48.892;9.544;2023-10-31T06:10:55;9.00;99.90
1468;DHT22;727;48.892;9.544;2023-10-31T06:13:23;9.00;99.90
1468;DHT22;727;48.892;9.544;2023-10-31T06:15:53;9.00;99.90
1468;DHT22;727;48.892;9.544;2023-10-31T06:18:20;8.90;99.90
1468;DHT22;727;48.892;9.544;2023-10-31T06:20:47;8.90;99.90
1468;DHT22;727;48.892;9.544;2023-10-31T06:23:15;8.90;99.90
1468;DHT22;727;48.892;9.544;2023-10-31T06:25:42;8.90;99.90
1468;DHT22;727;48.892;9.544;2023-10-31T06:28:09;8.90;99.90
1468;DHT22;727;48.892;9.544;2023-10-31T06:30:36;8.90;99.90
1468;DHT22;727;48.892;9.544;2023-10-31T06:33:03;8.90;99.90
1468;DHT22;727;48.892;9.544;2023-10-31T06:35:29;8.90;99.90
1468;DHT22;727;48.892;9.544;2023-10-31T06:37:56;9.00;99.90
1468;DHT22;727;48.892;9.544;2023-10-31T06:40:30;9.00;99.90
1468;DHT22;727;48.892;9.544;2023-10-31T06:42:58;9.10;99.90
1468;DHT22;727;48.892;9.544;2023-10-31T06:45:25;9.10;99.90
1468;DHT22;727;48.892;9.544;2023-10-31T06:47:54;9.20;99.90
1468;DHT22;727;48.892;9.544;2023-10-31T06:50:21;9.20;99.90
1468;DHT22;727;48.892;9.544;2023-10-31T06:52:48;9.20;99.90
1468;DHT22;727;48.892;9.544;2023-10-31T06:55:15;9.30;99.90
1468;DHT22;727;48.892;9.544;2023-10-31T06:57:43;9.30;99.90
1468;DHT22;727;48.892;9.544;2023-10-31T07:00:13;9.40;99.90
1468;DHT22;727;48.892;9.544;2023-10-31T07:02:46;9.40;99.90
1468;DHT22;727;48.892;9.544;2023-10-31T07:05:13;9.50;99.90
1468;DHT22;727;48.892;9.544;2023-10-31T07:07:41;9.60;99.90
1468;DHT22;727;48.892;9.544;2023-10-31T07:10:10;9.60;99.90
1468;DHT22;727;48.892;9.544;2023-10-31T07:12:36;9.70;99.90
1468;DHT22;727;48.892;9.544;2023-10-31T07:15:06;9.60;99.90
1468;DHT22;727;48.892;9.544;2023-10-31T07:17:33;9.70;99.90
1468;DHT22;727;48.892;9.544;2023-10-31T07:20:01;9.80;99.90
1468;DHT22;727;48.892;9.544;2023-10-31T07:22:28;9.90;99.90
1468;DHT22;727;48.892;9.544;2023-10-31T07:24:55;9.90;99.90
1468;DHT22;727;48.892;9.544;2023-10-31T07:27:23;10.00;99.90
1468;DHT22;727;48.892;9.544;2023-10-31T07:29:49;10.10;99.90
1468;DHT22;727;48.892;9.544;2023-10-31T07:32:18;10.10;99.90
1468;DHT22;727;48.892;9.544;2023-10-31T07:34:44;10.20;99.90
1468;DHT22;727;48.892;9.544;2023-10-31T07:37:11;10.20;99.90
1468;DHT22;727;48.892;9.544;2023-10-31T07:39:41;10.30;99.90
1468;DHT22;727;48.892;9.544;2023-10-31T07:42:08;10.30;99.90
1468;DHT22;727;48.892;9.544;2023-10-31T07:44:52;10.40;99.90
1468;DHT22;727;48.892;9.544;2023-10-31T07:47:34;10.50;99.90
1468;DHT22;727;48.892;9.544;2023-10-31T07:50:08;10.60;99.90
1468;DHT22;727;48.892;9.544;2023-10-31T07:52:45;10.60;99.90
1468;DHT22;727;48.892;9.544;2023-10-31T07:55:16;10.70;99.90
1468;DHT22;727;48.892;9.544;2023-10-31T07:57:44;10.70;99.90
1468;DHT22;727;48.892;9.544;2023-10-31T08:00:14;10.70;99.90
1468;DHT22;727;48.892;9.544;2023-10-31T08:03:02;10.80;99.90
1468;DHT22;727;48.892;9.544;2023-10-31T08:05:29;10.80;99.90
1468;DHT22;727;48.892;9.544;2023-10-31T08:07:56;10.80;99.90
1468;DHT22;727;48.892;9.544;2023-10-31T08:10:24;10.90;99.90
1468;DHT22;727;48.892;9.544;2023-10-31T08:12:50;11.00;99.90
1468;DHT22;727;48.892;9.544;2023-10-31T08:15:49;11.00;99.90
1468;DHT22;727;48.892;9.544;2023-10-31T08:23:42;11.00;99.90
1468;DHT22;727;48.892;9.544;2023-10-31T08:26:10;11.00;99.90
1468;DHT22;727;48.892;9.544;2023-10-31T08:28:38;11.10;99.90
1468;DHT22;727;48.892;9.544;2023-10-31T08:31:05;11.20;99.90
1468;DHT22;727;48.892;9.544;2023-10-31T08:33:32;11.30;99.90
1468;DHT22;727;48.892;9.544;2023-10-31T08:35:59;11.30;99.90
1468;DHT22;727;48.892;9.544;2023-10-31T08:38:26;11.40;99.90
1468;DHT22;727;48.892;9.544;2023-10-31T08:40:59;11.60;99.90
1468;DHT22;727;48.892;9.544;2023-10-31T08:43:25;11.70;99.90
1468;DHT22;727;48.892;9.544;2023-10-31T08:45:52;11.70;99.90
1468;DHT22;727;48.892;9.544;2023-10-31T08:48:19;11.80;99.90
1468;DHT22;727;48.892;9.544;2023-10-31T08:50:46;11.90;99.90
1468;DHT22;727;48.892;9.544;2023-10-31T08:53:13;11.90;99.90
1468;DHT22;727;48.892;9.544;2023-10-31T08:55:40;12.00;99.90
1468;DHT22;727;48.892;9.544;2023-10-31T08:58:10;12.10;99.90
1468;DHT22;727;48.892;9.544;2023-10-31T09:00:37;12.20;99.90
1468;DHT22;727;48.892;9.544;2023-10-31T09:03:06;12.30;99.90
1468;DHT22;727;48.892;9.544;2023-10-31T09:05:35;12.30;99.90
1468;DHT22;727;48.892;9.544;2023-10-31T09:08:04;12.40;99.90
1468;DHT22;727;48.892;9.544;2023-10-31T09:10:33;12.50;99.90
1468;DHT22;727;48.892;9.544;2023-10-31T09:13:00;12.60;99.90
1468;DHT22;727;48.892;9.544;2023-10-31T09:15:29;12.70;99.90
1468;DHT22;727;48.892;9.544;2023-10-31T09:17:58;12.90;99.90
1468;DHT22;727;48.892;9.544;2023-10-31T09:20:25;13.10;99.90
1468;DHT22;727;48.892;9.544;2023-10-31T09:22:53;13.30;99.90
1468;DHT22;727;48.892;9.544;2023-10-31T09:25:28;13.50;99.90
1468;DHT22;727;48.892;9.544;2023-10-31T09:27:57;13.80;99.90
1468;DHT22;727;48.892;9.544;2023-10-31T09:30:39;13.90;99.90
1468;DHT22;727;48.892;9.544;2023-10-31T09:33:06;14.00;99.90
1468;DHT22;727;48.892;9.544;2023-10-31T09:35:33;14.00;99.90
1468;DHT22;727;48.892;9.544;2023-10-31T09:38:00;14.00;99.90
1468;DHT22;727;48.892;9.544;2023-10-31T09:40:27;14.20;99.90
1468;DHT22;727;48.892;9.544;2023-10-31T09:42:54;14.10;99.90
1468;DHT22;727;48.892;9.544;2023-10-31T09:45:21;14.00;99.90
1468;DHT22;727;48.892;9.544;2023-10-31T09:47:51;14.00;99.90
1468;DHT22;727;48.892;9.544;2023-10-31T09:50:19;14.00;99.90
1468;DHT22;727;48.892;9.544;2023-10-31T09:52:46;14.20;99.90
1468;DHT22;727;48.892;9.544;2023-10-31T09:55:13;14.20;99.90
1468;DHT22;727;48.892;9.544;2023-10-31T09:58:00;14.40;99.90
1468;DHT22;727;48.892;9.544;2023-10-31T10:00:27;14.60;99.90
1468;DHT22;727;48.892;9.544;2023-10-31T10:02:58;14.50;99.90
1468;DHT22;727;48.892;9.544;2023-10-31T10:05:26;14.40;99.90
1468;DHT22;727;48.892;9.544;2023-10-31T10:07:55;14.20;99.90
1468;DHT22;727;48.892;9.544;2023-10-31T10:10:22;14.00;99.90
1468;DHT22;727;48.892;9.544;2023-10-31T10:12:51;13.90;99.90
1468;DHT22;727;48.892;9.544;2023-10-31T10:15:19;13.80;99.90
1468;DHT22;727;48.892;9.544;2023-10-31T10:17:49;13.70;99.90
1468;DHT22;727;48.892;9.544;2023-10-31T10:20:21;13.60;99.90
1468;DHT22;727;48.892;9.544;2023-10-31T10:22:48;13.50;99.90
1468;DHT22;727;48.892;9.544;2023-10-31T10:25:16;13.70;99.90
1468;DHT22;727;48.892;9.544;2023-10-31T10:27:44;13.70;99.90
1468;DHT22;727;48.892;9.544;2023-10-31T10:30:14;13.80;99.90
1468;DHT22;727;48.892;9.544;2023-10-31T10:32:42;13.70;99.90
1468;DHT22;727;48.892;9.544;2023-10-31T10:35:10;13.70;99.90
1468;DHT22;727;48.892;9.544;2023-10-31T10:37:38;13.70;99.90
1468;DHT22;727;48.892;9.544;2023-10-31T10:40:07;13.70;99.90
1468;DHT22;727;48.892;9.544;2023-10-31T10:42:44;13.60;99.90
1468;DHT22;727;48.892;9.544;2023-10-31T10:45:13;13.50;99.90
1468;DHT22;727;48.892;9.544;2023-10-31T10:47:45;13.60;99.90
1468;DHT22;727;48.892;9.544;2023-10-31T10:50:13;13.50;99.90
1468;DHT22;727;48.892;9.544;2023-10-31T10:52:47;13.50;99.90
1468;DHT22;727;48.892;9.544;2023-10-31T10:55:25;13.50;99.90
1468;DHT22;727;48.892;9.544;2023-10-31T10:58:13;13.60;99.90
1468;DHT22;727;48.892;9.544;2023-10-31T11:00:43;13.60;99.90
1468;DHT22;727;48.892;9.544;2023-10-31T11:03:16;13.50;99.90
1468;DHT22;727;48.892;9.544;2023-10-31T11:06:05;13.50;99.90
1468;DHT22;727;48.892;9.544;2023-10-31T11:08:34;13.50;99.90
1468;DHT22;727;48.892;9.544;2023-10-31T11:11:02;13.40;99.90
1468;DHT22;727;48.892;9.544;2023-10-31T11:18:38;13.40;99.90
1468;DHT22;727;48.892;9.544;2023-10-31T11:21:05;13.30;99.90
1468;DHT22;727;48.892;9.544;2023-10-31T11:23:40;13.30;99.90
1468;DHT22;727;48.892;9.544;2023-10-31T11:26:07;13.40;99.90
1468;DHT22;727;48.892;9.544;2023-10-31T11:28:36;13.50;99.90
1468;DHT22;727;48.892;9.544;2023-10-31T11:31:03;13.60;99.90
1468;DHT22;727;48.892;9.544;2023-10-31T11:33:48;13.70;99.90
1468;DHT22;727;48.892;9.544;2023-10-31T11:36:15;13.70;99.90
1468;DHT22;727;48.892;9.544;2023-10-31T11:39:11;13.60;99.90
1468;DHT22;727;48.892;9.544;2023-10-31T11:41:50;13.50;99.90
1468;DHT22;727;48.892;9.544;2023-10-31T11:44:18;13.60;99.90
1468;DHT22;727;48.892;9.544;2023-10-31T11:46:50;13.50;99.90
1468;DHT22;727;48.892;9.544;2023-10-31T11:49:49;13.50;99.90
1468;DHT22;727;48.892;9.544;2023-10-31T11:52:30;13.40;99.90
1468;DHT22;727;48.892;9.544;2023-10-31T11:55:08;13.50;99.90
1468;DHT22;727;48.892;9.544;2023-10-31T11:57:36;13.50;99.90
1468;DHT22;727;48.892;9.544;2023-10-31T12:00:03;13.40;99.90
1468;DHT22;727;48.892;9.544;2023-10-31T12:02:30;13.40;99.90
1468;DHT22;727;48.892;9.544;2023-10-31T12:05:08;13.40;99.90
1468;DHT22;727;48.892;9.544;2023-10-31T12:07:42;13.30;99.90
1468;DHT22;727;48.892;9.544;2023-10-31T12:10:09;13.20;99.90
1468;DHT22;727;48.892;9.544;2023-10-31T12:15:06;13.20;99.90
1468;DHT22;727;48.892;9.544;2023-10-31T12:17:34;13.20;99.90
1468;DHT22;727;48.892;9.544;2023-10-31T12:20:04;13.20;99.90
1468;DHT22;727;48.892;9.544;2023-10-31T12:22:34;13.20;99.90
1468;DHT22;727;48.892;9.544;2023-10-31T12:25:01;13.20;99.90
1468;DHT22;727;48.892;9.544;2023-10-31T12:27:43;13.20;99.90
1468;DHT22;727;48.892;9.544;2023-10-31T12:30:24;13.20;99.90
1468;DHT22;727;48.892;9.544;2023-10-31T12:33:04;13.10;99.90
1468;DHT22;727;48.892;9.544;2023-10-31T12:35:32;12.90;99.90
1468;DHT22;727;48.892;9.544;2023-10-31T12:38:01;12.80;99.90
1468;DHT22;727;48.892;9.544;2023-10-31T12:40:29;12.80;99.90
1468;DHT22;727;48.892;9.544;2023-10-31T12:42:56;12.80;99.90
1468;DHT22;727;48.892;9.544;2023-10-31T12:45:25;12.80;99.90
1468;DHT22;727;48.892;9.544;2023-10-31T12:48:02;12.70;99.90
1468;DHT22;727;48.892;9.544;2023-10-31T12:50:32;12.70;99.90
1468;DHT22;727;48.892;9.544;2023-10-31T12:53:00;12.70;99.90
1468;DHT22;727;48.892;9.544;2023-10-31T12:55:29;12.80;99.90
1468;DHT22;727;48.892;9.544;2023-10-31T12:57:57;12.80;99.90
1468;DHT22;727;48.892;9.544;2023-10-31T13:00:31;12.90;99.90
1468;DHT22;727;48.892;9.544;2023-10-31T13:03:03;12.90;99.90
1468;DHT22;727;48.892;9.544;2023-10-31T13:05:30;12.90;99.90
1468;DHT22;727;48.892;9.544;2023-10-31T13:07:59;12.90;99.90
1468;DHT22;727;48.892;9.544;2023-10-31T13:10:28;13.10;99.90
1468;DHT22;727;48.892;9.544;2023-10-31T13:12:58;13.30;99.90
1468;DHT22;727;48.892;9.544;2023-10-31T13:15:26;13.40;99.90
1468;DHT22;727;48.892;9.544;2023-10-31T13:17:53;13.60;99.90
1468;DHT22;727;48.892;9.544;2023-10-31T13:20:21;13.80;99.90
1468;DHT22;727;48.892;9.544;2023-10-31T13:22:48;13.70;99.90
1468;DHT22;727;48.892;9.544;2023-10-31T13:25:16;13.70;99.90
1468;DHT22;727;48.892;9.544;2023-10-31T13:27:45;13.60;99.90
1468;DHT22;727;48.892;9.544;2023-10-31T13:30:16;13.60;99.90
1468;DHT22;727;48.892;9.544;2023-10-31T13:32:44;13.60;99.90
1468;DHT22;727;48.892;9.544;2023-10-31T13:35:11;13.50;99.90
1468;DHT22;727;48.892;9.544;2023-10-31T13:37:40;13.50;99.90
1468;DHT22;727;48.892;9.544;2023-10-31T13:40:07;13.40;99.90
1468;DHT22;727;48.892;9.544;2023-10-31T13:42:39;13.40;99.90
1468;DHT22;727;48.892;9.544;2023-10-31T13:45:08;13.40;99.90
1468;DHT22;727;48.892;9.544;2023-10-31T13:47:35;13.30;99.90
1468;DHT22;727;48.892;9.544;2023-10-31T13:50:04;13.10;99.90
1468;DHT22;727;48.892;9.544;2023-10-31T13:52:34;12.90;99.90
1468;DHT22;727;48.892;9.544;2023-10-31T13:55:01;12.80;99.90
1468;DHT22;727;48.892;9.544;2023-10-31T13:57:30;12.70;99.90
1468;DHT22;727;48.892;9.544;2023-10-31T13:59:57;12.60;99.90
1468;DHT22;727;48.892;9.544;2023-10-31T14:02:27;12.60;99.90
1468;DHT22;727;48.892;9.544;2023-10-31T14:04:55;12.60;99.90
1468;DHT22;727;48.892;9.544;2023-10-31T14:07:22;12.70;99.90
1468;DHT22;727;48.892;9.544;2023-10-31T14:09:49;12.70;99.90
1468;DHT22;727;48.892;9.544;2023-10-31T14:12:16;12.70;99.90
1468;DHT22;727;48.892;9.544;2023-10-31T14:14:43;12.80;99.90
1468;DHT22;727;48.892;9.544;2023-10-31T14:17:13;12.80;99.90
1468;DHT22;727;48.892;9.544;2023-10-31T14:19:41;12.80;99.90
1468;DHT22;727;48.892;9.544;2023-10-31T14:22:08;12.80;99.90
1468;DHT22;727;48.892;9.544;2023-10-31T14:24:35;12.90;99.90
1468;DHT22;727;48.892;9.544;2023-10-31T14:27:04;12.80;99.90
1468;DHT22;727;48.892;9.544;2023-10-31T14:29:31;12.80;99.90
1468;DHT22;727;48.892;9.544;2023-10-31T14:32:05;12.70;99.90
1468;DHT22;727;48.892;9.544;2023-10-31T14:34:32;12.70;99.90
1468;DHT22;727;48.892;9.544;2023-10-31T14:37:03;12.80;99.90
1468;DHT22;727;48.892;9.544;2023-10-31T14:39:31;12.70;99.90
1468;DHT22;727;48.892;9.544;2023-10-31T14:41:59;12.70;99.90
1468;DHT22;727;48.892;9.544;2023-10-31T14:44:37;12.70;99.90
1468;DHT22;727;48.892;9.544;2023-10-31T14:47:04;12.70;99.90
1468;DHT22;727;48.892;9.544;2023-10-31T14:49:31;12.70;99.90
1468;DHT22;727;48.892;9.544;2023-10-31T14:52:05;12.70;99.90
1468;DHT22;727;48.892;9.544;2023-10-31T14:54:34;12.70;99.90
1468;DHT22;727;48.892;9.544;2023-10-31T14:57:10;12.70;99.90
1468;DHT22;727;48.892;9.544;2023-10-31T14:59:39;12.60;99.90
1468;DHT22;727;48.892;9.544;2023-10-31T15:02:06;12.60;99.90
1468;DHT22;727;48.892;9.544;2023-10-31T15:04:33;12.50;99.90
1468;DHT22;727;48.892;9.544;2023-10-31T15:07:02;12.50;99.90
1468;DHT22;727;48.892;9.544;2023-10-31T15:09:30;12.40;99.90
1468;DHT22;727;48.892;9.544;2023-10-31T15:11:57;12.30;99.90
1468;DHT22;727;48.892;9.544;2023-10-31T15:14:24;12.30;99.90
1468;DHT22;727;48.892;9.544;2023-10-31T15:16:51;12.30;99.90
1468;DHT22;727;48.892;9.544;2023-10-31T15:19:17;12.20;99.90
1468;DHT22;727;48.892;9.544;2023-10-31T15:21:44;12.10;99.90
1468;DHT22;727;48.892;9.544;2023-10-31T15:24:13;12.10;99.90
1468;DHT22;727;48.892;9.544;2023-10-31T15:26:39;12.10;99.90
1468;DHT22;727;48.892;9.544;2023-10-31T15:29:06;12.00;99.90
1468;DHT22;727;48.892;9.544;2023-10-31T15:31:33;12.00;99.90
1468;DHT22;727;48.892;9.544;2023-10-31T15:34:02;11.90;99.90
1468;DHT22;727;48.892;9.544;2023-10-31T15:36:28;11.90;99.90
1468;DHT22;727;48.892;9.544;2023-10-31T15:38:55;11.90;99.90
1468;DHT22;727;48.892;9.544;2023-10-31T15:41:23;11.90;99.90
1468;DHT22;727;48.892;9.544;2023-10-31T15:43:54;11.80;99.90
1468;DHT22;727;48.892;9.544;2023-10-31T15:46:21;11.80;99.90
1468;DHT22;727;48.892;9.544;2023-10-31T15:48:47;11.80;99.90
1468;DHT22;727;48.892;9.544;2023-10-31T15:51:14;11.80;99.90
1468;DHT22;727;48.892;9.544;2023-10-31T15:53:42;11.70;99.90
1468;DHT22;727;48.892;9.544;2023-10-31T15:56:09;11.80;99.90
1468;DHT22;727;48.892;9.544;2023-10-31T15:58:37;11.70;99.90
1468;DHT22;727;48.892;9.544;2023-10-31T16:01:05;11.70;99.90
1468;DHT22;727;48.892;9.544;2023-10-31T16:03:33;11.70;99.90
1468;DHT22;727;48.892;9.544;2023-10-31T16:06:00;11.70;99.90
1468;DHT22;727;48.892;9.544;2023-10-31T16:08:27;11.60;99.90
1468;DHT22;727;48.892;9.544;2023-10-31T16:10:54;11.60;99.90
1468;DHT22;727;48.892;9.544;2023-10-31T16:13:20;11.60;99.90
1468;DHT22;727;48.892;9.544;2023-10-31T16:15:48;11.60;99.90
1468;DHT22;727;48.892;9.544;2023-10-31T16:18:16;11.60;99.90
1468;DHT22;727;48.892;9.544;2023-10-31T16:20:43;11.60;99.90
1468;DHT22;727;48.892;9.544;2023-10-31T16:23:12;11.50;99.90
1468;DHT22;727;48.892;9.544;2023-10-31T16:25:41;11.50;99.90
1468;DHT22;727;48.892;9.544;2023-10-31T16:28:08;11.50;99.90
1468;DHT22;727;48.892;9.544;2023-10-31T16:30:35;11.50;99.90
1468;DHT22;727;48.892;9.544;2023-10-31T16:33:03;11.50;99.90
1468;DHT22;727;48.892;9.544;2023-10-31T16:35:30;11.40;99.90
1468;DHT22;727;48.892;9.544;2023-10-31T16:37:56;11.50;99.90
1468;DHT22;727;48.892;9.544;2023-10-31T16:40:23;11.40;99.90
1468;DHT22;727;48.892;9.544;2023-10-31T16:42:51;11.40;99.90
1468;DHT22;727;48.892;9.544;2023-10-31T16:45:18;11.40;99.90